createdAt,value
2022-11-23T00:00:09.070Z,20.97
2022-11-23T00:02:36.225Z,17.57
2022-11-23T00:05:03.491Z,16.60
2022-11-23T00:07:30.580Z,16.23
2022-11-23T00:09:57.718Z,12.67
2022-11-23T00:12:24.811Z,15.20
2022-11-23T00:14:51.927Z,16.17
2022-11-23T00:17:19.019Z,13.30
2022-11-23T00:19:46.091Z,10.43
2022-11-23T00:22:13.218Z,17.33
2022-11-23T00:24:40.407Z,15.37
2022-11-23T00:27:07.526Z,13.20
2022-11-23T00:29:34.610Z,16.70
2022-11-23T00:32:01.719Z,19.37
2022-11-23T00:34:28.863Z,16.23
2022-11-23T00:36:55.974Z,15.63
2022-11-23T00:39:23.165Z,13.20
2022-11-23T00:41:50.270Z,13.37
2022-11-23T00:44:17.377Z,17.97
2022-11-23T00:46:44.483Z,18.87
2022-11-23T00:49:11.578Z,16.10
2022-11-23T00:51:38.759Z,14.33
2022-11-23T00:54:06.517Z,13.73
2022-11-23T00:56:34.540Z,13.17
2022-11-23T00:59:02.430Z,19.47
2022-11-23T01:01:30.998Z,22.97
2022-11-23T01:03:59.648Z,15.43
2022-11-23T01:06:30.975Z,12.03
2022-11-23T01:09:02.341Z,11.53
2022-11-23T01:11:30.150Z,14.77
2022-11-23T01:13:57.264Z,13.67
2022-11-23T01:16:26.505Z,13.70
2022-11-23T01:18:57.414Z,15.03
2022-11-23T01:21:25.224Z,16.20
2022-11-23T01:23:52.541Z,12.93
2022-11-23T01:26:19.815Z,13.43
2022-11-23T01:28:46.921Z,17.93
2022-11-23T01:31:15.427Z,17.33
2022-11-23T01:33:42.645Z,11.30
2022-11-23T01:36:20.370Z,12.03
2022-11-23T01:38:48.101Z,14.23
2022-11-23T01:41:16.729Z,12.20
2022-11-23T01:43:43.825Z,18.37
2022-11-23T01:46:11.988Z,15.00
2022-11-23T01:48:39.083Z,20.07
2022-11-23T01:51:07.305Z,19.33
2022-11-23T01:53:34.688Z,16.20
2022-11-23T01:56:03.112Z,18.70
2022-11-23T01:58:32.590Z,19.00
2022-11-23T02:01:00.579Z,21.57
2022-11-23T02:03:29.202Z,20.30
2022-11-23T02:06:00.806Z,19.77
2022-11-23T02:08:28.701Z,17.37
2022-11-23T02:10:58.921Z,20.87
2022-11-23T02:13:26.566Z,21.53
2022-11-23T02:15:54.210Z,17.70
2022-11-23T02:18:25.725Z,19.40
2022-11-23T02:20:53.513Z,18.87
2022-11-23T02:23:53.815Z,18.97
2022-11-23T02:26:31.124Z,18.70
2022-11-23T02:29:11.146Z,15.67
2022-11-23T02:31:38.240Z,20.67
2022-11-23T02:34:05.347Z,20.50
2022-11-23T02:36:36.014Z,16.27
2022-11-23T02:39:08.202Z,15.17
2022-11-23T02:41:38.922Z,18.07
2022-11-23T02:44:09.903Z,22.53
2022-11-23T02:46:37.136Z,18.13
2022-11-23T02:49:04.225Z,19.73
2022-11-23T02:51:31.307Z,16.37
2022-11-23T02:53:58.441Z,18.70
2022-11-23T02:56:25.555Z,19.60
2022-11-23T02:58:52.656Z,19.33
2022-11-23T03:01:19.891Z,14.50
2022-11-23T03:03:47.034Z,18.00
2022-11-23T03:06:14.159Z,15.90
2022-11-23T03:08:41.235Z,15.67
2022-11-23T03:11:08.291Z,17.47
2022-11-23T03:13:35.439Z,13.43
2022-11-23T03:16:02.612Z,16.73
2022-11-23T03:18:29.714Z,13.33
2022-11-23T03:20:56.830Z,17.00
2022-11-23T03:23:23.939Z,13.33
2022-11-23T03:25:58.204Z,16.60
2022-11-23T03:28:25.587Z,17.07
2022-11-23T03:30:52.687Z,15.77
2022-11-23T03:33:20.186Z,13.00
2022-11-23T03:35:47.446Z,12.77
2022-11-23T03:38:14.576Z,18.53
2022-11-23T03:40:41.812Z,12.43
2022-11-23T03:43:08.924Z,12.73
2022-11-23T03:45:36.030Z,14.77
2022-11-23T03:48:03.131Z,10.93
2022-11-23T03:50:30.237Z,15.53
2022-11-23T03:52:57.388Z,15.20
2022-11-23T03:55:24.589Z,13.93
2022-11-23T03:57:53.738Z,13.83
2022-11-23T04:00:20.901Z,16.37
2022-11-23T04:02:48.027Z,13.20
2022-11-23T04:05:15.166Z,13.47
2022-11-23T04:07:42.349Z,14.53
2022-11-23T04:10:10.680Z,14.13
2022-11-23T04:12:37.760Z,12.97
2022-11-23T04:15:05.059Z,14.37
2022-11-23T04:17:32.155Z,13.03
2022-11-23T04:19:59.409Z,14.10
2022-11-23T04:22:26.512Z,12.87
2022-11-23T04:24:53.663Z,17.20
2022-11-23T04:27:20.739Z,14.70
2022-11-23T04:29:47.800Z,10.47
2022-11-23T04:32:14.887Z,12.80
2022-11-23T04:34:41.949Z,14.80
2022-11-23T04:37:13.041Z,12.57
2022-11-23T04:39:40.657Z,11.43
2022-11-23T04:42:07.783Z,13.83
2022-11-23T04:44:34.886Z,17.07
2022-11-23T04:47:02.006Z,12.10
2022-11-23T04:49:29.272Z,13.93
2022-11-23T04:51:56.543Z,17.27
2022-11-23T04:54:23.607Z,11.93
2022-11-23T04:56:50.692Z,13.57
2022-11-23T04:59:17.779Z,16.30
2022-11-23T05:01:44.891Z,13.47
2022-11-23T05:04:17.480Z,16.30
2022-11-23T05:06:44.929Z,9.50
2022-11-23T05:09:12.081Z,12.73
2022-11-23T05:11:39.195Z,16.27
2022-11-23T05:14:06.456Z,12.60
2022-11-23T05:16:33.639Z,18.80
2022-11-23T05:19:00.751Z,14.17
2022-11-23T05:21:27.882Z,18.63
2022-11-23T05:23:55.004Z,12.00
2022-11-23T05:26:22.197Z,19.57
2022-11-23T05:28:49.287Z,10.33
2022-11-23T05:31:16.389Z,11.90
2022-11-23T05:33:43.625Z,13.73
2022-11-23T05:36:13.849Z,13.83
2022-11-23T05:38:41.724Z,16.53
2022-11-23T05:41:08.879Z,13.43
2022-11-23T05:43:36.040Z,11.97
2022-11-23T05:46:03.762Z,12.27
2022-11-23T05:48:30.952Z,15.17
2022-11-23T05:51:03.716Z,13.03
2022-11-23T05:53:32.484Z,14.87
2022-11-23T05:56:01.226Z,16.23
2022-11-23T05:58:28.678Z,14.30
2022-11-23T06:00:59.779Z,16.50
2022-11-23T06:03:26.982Z,13.43
2022-11-23T06:05:54.196Z,8.20
2022-11-23T06:08:21.381Z,13.30
2022-11-23T06:10:48.459Z,12.07
2022-11-23T06:13:15.615Z,14.27
2022-11-23T06:15:42.747Z,12.53
2022-11-23T06:18:10.344Z,13.43
2022-11-23T06:20:37.478Z,12.53
2022-11-23T06:23:04.558Z,17.07
2022-11-23T06:25:31.844Z,12.30
2022-11-23T06:28:00.214Z,14.03
2022-11-23T06:30:28.338Z,11.17
2022-11-23T06:32:55.742Z,16.10
2022-11-23T06:35:22.882Z,12.57
2022-11-23T06:37:50.352Z,19.13
2022-11-23T06:40:17.899Z,15.90
2022-11-23T06:42:45.239Z,18.33
2022-11-23T06:45:12.726Z,16.07
2022-11-23T06:47:39.920Z,17.30
2022-11-23T06:50:07.648Z,18.70
2022-11-23T06:52:34.737Z,16.10
2022-11-23T06:55:01.834Z,11.40
2022-11-23T06:57:28.920Z,12.20
2022-11-23T06:59:56.051Z,15.73
2022-11-23T07:02:23.159Z,17.30
2022-11-23T07:04:52.863Z,11.30
2022-11-23T07:07:20.017Z,17.80
2022-11-23T07:09:47.929Z,17.80
2022-11-23T07:12:15.017Z,15.07
2022-11-23T07:14:42.110Z,12.87
2022-11-23T07:17:10.354Z,14.97
2022-11-23T07:19:39.845Z,16.73
2022-11-23T07:22:07.040Z,12.07
2022-11-23T07:24:39.548Z,12.90
2022-11-23T07:27:08.698Z,13.20
2022-11-23T07:29:35.825Z,14.33
2022-11-23T07:32:02.978Z,13.03
2022-11-23T07:34:31.266Z,12.60
2022-11-23T07:37:01.994Z,14.87
2022-11-23T07:39:55.023Z,14.17
2022-11-23T07:42:32.221Z,12.77
2022-11-23T07:45:01.926Z,19.33
2022-11-23T07:47:29.169Z,18.97
2022-11-23T07:49:56.262Z,16.07
2022-11-23T07:52:23.496Z,14.40
2022-11-23T07:54:50.601Z,20.87
2022-11-23T07:57:17.686Z,13.20
2022-11-23T07:59:44.755Z,14.47
2022-11-23T08:02:13.170Z,17.23
2022-11-23T08:04:40.271Z,14.70
2022-11-23T08:07:07.688Z,12.90
2022-11-23T08:09:34.873Z,16.40
2022-11-23T08:12:02.052Z,15.23
2022-11-23T08:14:29.195Z,14.90
2022-11-23T08:16:56.372Z,13.57
2022-11-23T08:19:23.548Z,13.00
2022-11-23T08:21:50.623Z,18.17
2022-11-23T08:24:17.745Z,12.50
2022-11-23T08:26:44.905Z,12.97
2022-11-23T08:29:12.066Z,16.17
2022-11-23T08:31:39.215Z,18.10
2022-11-23T08:34:06.391Z,12.20
2022-11-23T08:36:33.553Z,15.50
2022-11-23T08:39:00.722Z,14.73
2022-11-23T08:41:27.878Z,11.07
2022-11-23T08:43:54.976Z,17.03
2022-11-23T08:46:22.110Z,19.80
2022-11-23T08:48:49.280Z,20.10
2022-11-23T08:51:22.392Z,15.97
2022-11-23T08:53:50.039Z,23.13
2022-11-23T08:56:17.404Z,15.87
2022-11-23T08:58:44.764Z,17.40
2022-11-23T09:01:13.332Z,13.67
2022-11-23T09:03:40.518Z,19.90
2022-11-23T09:06:07.893Z,15.33
2022-11-23T09:08:35.718Z,13.37
2022-11-23T09:11:03.563Z,16.53
2022-11-23T09:13:30.794Z,18.33
2022-11-23T09:15:58.834Z,15.40
2022-11-23T09:18:26.383Z,14.97
2022-11-23T09:20:53.708Z,15.03
2022-11-23T09:23:20.931Z,17.70
2022-11-23T09:25:50.005Z,18.40
2022-11-23T09:28:19.723Z,15.23
2022-11-23T09:30:48.097Z,14.33
2022-11-23T09:33:15.322Z,14.63
2022-11-23T09:35:44.043Z,19.33
2022-11-23T09:38:11.413Z,15.20
2022-11-23T09:40:39.486Z,18.50
2022-11-23T09:43:14.154Z,16.13
2022-11-23T09:45:48.474Z,15.97
2022-11-23T09:48:23.532Z,13.57
2022-11-23T09:50:53.106Z,17.37
2022-11-23T09:53:29.459Z,14.67
2022-11-23T09:55:57.214Z,12.83
2022-11-23T09:58:28.071Z,17.60
2022-11-23T10:01:01.152Z,11.90
2022-11-23T10:03:28.808Z,21.80
2022-11-23T10:06:01.741Z,17.87
2022-11-23T10:08:31.943Z,15.63
2022-11-23T10:11:05.085Z,17.90
2022-11-23T10:13:55.434Z,15.83
2022-11-23T10:16:22.567Z,18.07
2022-11-23T10:18:52.479Z,13.97
2022-11-23T10:21:38.615Z,13.50
2022-11-23T10:24:08.797Z,14.80
2022-11-23T10:26:38.608Z,15.13
2022-11-23T10:29:24.255Z,17.10
2022-11-23T10:31:56.778Z,13.30
2022-11-23T10:34:39.562Z,17.67
2022-11-23T10:37:11.128Z,19.33
2022-11-23T10:39:38.283Z,14.77
2022-11-23T10:42:15.202Z,14.93
2022-11-23T10:44:44.382Z,12.77
2022-11-23T10:47:11.479Z,12.97
2022-11-23T10:49:38.609Z,13.47
2022-11-23T10:52:07.592Z,19.20
2022-11-23T10:54:40.903Z,15.87
2022-11-23T10:57:26.561Z,18.07
2022-11-23T10:59:59.842Z,17.53
2022-11-23T11:02:27.214Z,13.73
2022-11-23T11:05:12.411Z,14.23
2022-11-23T11:07:40.055Z,18.37
2022-11-23T11:10:07.570Z,18.77
2022-11-23T11:12:35.545Z,15.90
2022-11-23T11:15:11.227Z,16.00
2022-11-23T11:17:39.683Z,19.73
2022-11-23T11:20:25.196Z,12.53
2022-11-23T11:22:52.297Z,16.20
2022-11-23T11:25:39.014Z,18.17
2022-11-23T11:28:16.067Z,14.30
2022-11-23T11:30:47.318Z,14.20
2022-11-23T11:33:20.530Z,15.73
2022-11-23T11:35:49.871Z,14.93
2022-11-23T11:38:29.721Z,12.27
2022-11-23T11:40:58.332Z,13.65
2022-11-23T11:43:51.854Z,15.32
2022-11-23T11:46:31.538Z,15.98
2022-11-23T11:49:11.827Z,14.60
2022-11-23T11:51:41.748Z,16.17
2022-11-23T11:54:24.502Z,15.70
2022-11-23T11:56:53.362Z,14.53
2022-11-23T11:59:20.478Z,10.80
2022-11-23T12:02:06.192Z,12.50
2022-11-23T12:04:33.588Z,21.42
2022-11-23T12:07:22.759Z,9.68
2022-11-23T12:09:52.615Z,13.63
2022-11-23T12:12:28.243Z,13.67
2022-11-23T12:14:57.591Z,14.97
2022-11-23T12:17:33.673Z,16.50
2022-11-23T12:20:09.783Z,15.80
2022-11-23T12:22:52.623Z,11.07
2022-11-23T12:25:26.813Z,12.33
2022-11-23T12:28:04.918Z,13.10
2022-11-23T12:30:52.289Z,17.43
2022-11-23T12:33:28.453Z,14.73
2022-11-23T12:36:03.331Z,12.77
2022-11-23T12:38:32.136Z,15.63
2022-11-23T12:41:11.537Z,15.45
2022-11-23T12:43:48.031Z,12.15
2022-11-23T12:46:17.971Z,12.10
2022-11-23T12:49:03.113Z,14.18
2022-11-23T12:51:30.182Z,12.27
2022-11-23T12:54:15.228Z,12.52
2022-11-23T12:56:49.594Z,11.32
2022-11-23T12:59:17.095Z,9.33
2022-11-23T13:01:47.151Z,8.15
2022-11-23T13:04:23.297Z,13.30
2022-11-23T13:07:20.311Z,10.60
2022-11-23T13:09:43.767Z,7.03
2022-11-23T13:12:13.591Z,9.63
2022-11-23T13:14:55.738Z,8.90
2022-11-23T13:17:26.130Z,9.47
2022-11-23T13:19:53.278Z,8.47
2022-11-23T13:22:21.154Z,11.30
2022-11-23T13:25:00.179Z,8.27
2022-11-23T13:27:31.530Z,10.40
2022-11-23T13:30:01.146Z,8.40
2022-11-23T13:32:34.850Z,9.13
2022-11-23T13:35:02.213Z,8.43
2022-11-23T13:37:29.279Z,10.67
2022-11-23T13:39:57.374Z,9.47
2022-11-23T13:42:25.604Z,10.83
2022-11-23T13:45:11.286Z,7.17
2022-11-23T13:47:42.311Z,9.33
2022-11-23T13:50:19.033Z,9.97
2022-11-23T13:52:50.182Z,7.77
2022-11-23T13:55:20.376Z,11.90
2022-11-23T13:58:07.965Z,13.20
2022-11-23T14:00:51.955Z,10.50
2022-11-23T14:03:38.056Z,6.80
2022-11-23T14:06:09.461Z,10.43
2022-11-23T14:08:37.924Z,8.67
2022-11-23T14:11:12.116Z,8.50
2022-11-23T14:13:39.767Z,8.83
2022-11-23T14:16:12.389Z,11.37
2022-11-23T14:18:39.482Z,9.90
2022-11-23T14:21:12.256Z,12.73
2022-11-23T14:23:45.261Z,11.60
2022-11-23T14:26:31.144Z,8.67
2022-11-23T14:29:21.747Z,9.33
2022-11-23T14:31:57.708Z,12.37
2022-11-23T14:34:31.762Z,11.67
2022-11-23T14:37:21.715Z,12.27
2022-11-23T14:40:09.055Z,9.83
2022-11-23T14:42:40.487Z,9.17
2022-11-23T14:45:08.275Z,16.90
2022-11-23T14:47:35.480Z,11.53
2022-11-23T14:50:02.704Z,10.67
2022-11-23T14:52:31.806Z,11.60
2022-11-23T14:55:00.832Z,8.50
2022-11-23T14:57:29.868Z,10.63
2022-11-23T14:59:58.848Z,13.17
2022-11-23T15:02:40.553Z,8.73
2022-11-23T15:05:25.899Z,9.73
2022-11-23T15:07:59.206Z,11.00
2022-11-23T15:10:34.249Z,10.03
2022-11-23T15:13:01.359Z,9.03
2022-11-23T15:15:38.006Z,9.27
2022-11-23T15:18:05.115Z,11.67
2022-11-23T15:20:36.888Z,9.70
2022-11-23T15:23:04.626Z,12.57
2022-11-23T15:25:32.345Z,12.77
2022-11-23T15:27:59.445Z,13.47
2022-11-23T15:30:30.364Z,10.07
2022-11-23T15:32:57.595Z,9.80
2022-11-23T15:35:29.072Z,15.77
2022-11-23T15:37:56.600Z,13.03
2022-11-23T15:40:24.431Z,11.53
2022-11-23T15:42:51.865Z,12.73
2022-11-23T15:45:34.613Z,9.13
2022-11-23T15:48:03.220Z,6.73
2022-11-23T15:50:34.032Z,10.00
2022-11-23T15:53:01.920Z,11.53
2022-11-23T15:55:30.239Z,11.33
2022-11-23T15:57:57.520Z,11.00
2022-11-23T16:00:25.924Z,11.47
2022-11-23T16:02:53.360Z,13.03
2022-11-23T16:05:24.196Z,11.40
2022-11-23T16:07:54.161Z,11.53
2022-11-23T16:10:25.940Z,10.07
2022-11-23T16:12:55.991Z,10.37
2022-11-23T16:15:33.712Z,11.33
2022-11-23T16:18:05.404Z,12.97
2022-11-23T16:20:33.028Z,11.23
2022-11-23T16:23:01.407Z,11.90
2022-11-23T16:25:33.044Z,12.47
2022-11-23T16:28:00.141Z,11.37
2022-11-23T16:30:30.843Z,16.17
2022-11-23T16:32:59.079Z,9.67
2022-11-23T16:35:26.183Z,11.23
2022-11-23T16:37:53.577Z,12.07
2022-11-23T16:40:20.713Z,10.50
2022-11-23T16:42:51.924Z,9.80
2022-11-23T16:45:19.111Z,18.50
2022-11-23T16:47:53.443Z,12.60
2022-11-23T16:50:20.639Z,9.33
2022-11-23T16:52:47.975Z,12.63
2022-11-23T16:55:15.123Z,12.27
2022-11-23T16:57:43.269Z,8.93
2022-11-23T17:00:16.115Z,15.87
2022-11-23T17:02:43.416Z,15.03
2022-11-23T17:05:21.023Z,14.77
2022-11-23T17:07:48.193Z,17.67
2022-11-23T17:10:15.653Z,10.60
2022-11-23T17:12:47.914Z,12.27
2022-11-23T17:15:15.057Z,13.67
2022-11-23T17:17:42.172Z,14.27
2022-11-23T17:20:12.650Z,11.33
2022-11-23T17:22:39.847Z,11.03
2022-11-23T17:25:11.672Z,8.10
2022-11-23T17:27:42.308Z,12.20
2022-11-23T17:30:17.066Z,12.70
2022-11-23T17:32:44.262Z,10.57
2022-11-23T17:35:11.446Z,12.00
2022-11-23T17:37:38.796Z,12.57
2022-11-23T17:40:15.394Z,13.53
2022-11-23T17:42:42.515Z,12.10
2022-11-23T17:45:09.932Z,9.53
2022-11-23T17:47:38.200Z,15.40
2022-11-23T17:50:07.048Z,10.60
2022-11-23T17:52:34.165Z,13.63
2022-11-23T17:55:01.246Z,12.03
2022-11-23T17:57:28.459Z,21.53
2022-11-23T17:59:58.222Z,24.00
2022-11-23T18:02:28.068Z,20.70
2022-11-23T18:04:56.154Z,22.13
2022-11-23T18:07:23.268Z,22.63
2022-11-23T18:09:50.998Z,27.17
2022-11-23T18:12:19.322Z,30.37
2022-11-23T18:14:46.412Z,26.13
2022-11-23T18:17:13.558Z,23.23
2022-11-23T18:19:40.665Z,24.00
2022-11-23T18:22:07.822Z,19.37
2022-11-23T18:24:35.018Z,19.67
2022-11-23T18:27:02.124Z,19.67
2022-11-23T18:29:29.470Z,17.27
2022-11-23T18:31:56.585Z,17.83
2022-11-23T18:34:23.721Z,13.77
2022-11-23T18:36:50.868Z,16.63
2022-11-23T18:39:17.936Z,16.27
2022-11-23T18:41:45.053Z,22.97
2022-11-23T18:44:12.185Z,13.57
2022-11-23T18:46:41.070Z,19.47
2022-11-23T18:49:08.391Z,18.77
2022-11-23T18:51:35.552Z,19.60
2022-11-23T18:54:02.632Z,22.17
2022-11-23T18:56:29.727Z,20.40
2022-11-23T18:58:56.831Z,29.23
2022-11-23T19:01:24.395Z,26.60
2022-11-23T19:03:53.202Z,27.43
2022-11-23T19:06:21.684Z,24.07
2022-11-23T19:08:57.432Z,18.00
2022-11-23T19:11:25.648Z,23.77
2022-11-23T19:13:54.317Z,22.23
2022-11-23T19:16:25.862Z,20.90
2022-11-23T19:18:56.015Z,26.13
2022-11-23T19:21:23.976Z,24.20
2022-11-23T19:23:52.132Z,30.57
2022-11-23T19:26:19.764Z,27.80
2022-11-23T19:28:47.138Z,30.30
2022-11-23T19:31:16.127Z,28.03
2022-11-23T19:33:44.086Z,24.50
2022-11-23T19:36:12.825Z,19.93
2022-11-23T19:38:39.925Z,21.33
2022-11-23T19:41:07.199Z,14.87
2022-11-23T19:43:34.634Z,16.63
2022-11-23T19:46:02.739Z,20.77
2022-11-23T19:48:31.130Z,19.40
2022-11-23T19:51:08.316Z,20.33
2022-11-23T19:53:36.406Z,24.13
2022-11-23T19:56:04.474Z,33.60
2022-11-23T19:58:32.435Z,25.73
2022-11-23T20:01:00.354Z,26.43
2022-11-23T20:03:27.534Z,30.67
2022-11-23T20:05:55.959Z,27.60
2022-11-23T20:08:23.124Z,38.00
2022-11-23T20:10:50.241Z,29.47
2022-11-23T20:13:17.385Z,29.47
2022-11-23T20:15:44.788Z,22.00
2022-11-23T20:18:12.114Z,17.63
2022-11-23T20:20:45.974Z,24.93
2022-11-23T20:23:14.735Z,23.00
2022-11-23T20:25:42.202Z,28.50
2022-11-23T20:28:12.361Z,23.70
2022-11-23T20:30:39.596Z,22.10
2022-11-23T20:33:06.769Z,29.20
2022-11-23T20:35:33.936Z,26.53
2022-11-23T20:38:01.042Z,27.20
2022-11-23T20:40:28.164Z,25.17
2022-11-23T20:42:58.900Z,34.90
2022-11-23T20:45:26.677Z,26.53
2022-11-23T20:47:54.763Z,27.73
2022-11-23T20:50:27.030Z,26.17
2022-11-23T20:53:03.943Z,30.97
2022-11-23T20:55:32.022Z,34.00
2022-11-23T20:57:59.147Z,34.50
2022-11-23T21:00:26.313Z,36.77
2022-11-23T21:02:54.096Z,34.87
2022-11-23T21:05:21.458Z,35.97
2022-11-23T21:07:49.090Z,36.97
2022-11-23T21:10:35.234Z,39.37
2022-11-23T21:13:21.178Z,43.27
2022-11-23T21:15:48.345Z,37.30
2022-11-23T21:18:15.712Z,34.87
2022-11-23T21:20:43.649Z,36.87
2022-11-23T21:23:10.834Z,133.33
2022-11-23T21:25:37.936Z,59.73
2022-11-23T21:28:05.181Z,54.27
2022-11-23T21:30:32.359Z,70.20
2022-11-23T21:32:59.481Z,49.70
2022-11-23T21:35:26.587Z,32.33
2022-11-23T21:37:53.663Z,28.50
2022-11-23T21:40:20.809Z,24.00
2022-11-23T21:42:48.063Z,30.97
2022-11-23T21:45:15.211Z,27.47
2022-11-23T21:47:42.476Z,25.07
2022-11-23T21:50:09.836Z,27.97
2022-11-23T21:52:36.955Z,29.37
2022-11-23T21:55:04.118Z,21.80
2022-11-23T21:57:31.222Z,31.10
2022-11-23T21:59:58.549Z,22.20
2022-11-23T22:02:25.687Z,22.93
2022-11-23T22:04:52.840Z,28.33
2022-11-23T22:07:20.040Z,31.17
2022-11-23T22:09:47.207Z,21.30
2022-11-23T22:12:14.272Z,23.93
2022-11-23T22:14:41.385Z,18.13
2022-11-23T22:17:08.473Z,21.13
2022-11-23T22:19:35.656Z,17.17
2022-11-23T22:22:03.950Z,20.90
2022-11-23T22:24:31.236Z,18.83
2022-11-23T22:26:58.563Z,19.40
2022-11-23T22:29:25.906Z,17.50
2022-11-23T22:31:53.088Z,22.00
2022-11-23T22:34:20.264Z,19.43
2022-11-23T22:36:50.386Z,18.47
2022-11-23T22:39:17.524Z,18.27
2022-11-23T22:41:44.732Z,18.80
2022-11-23T22:44:11.824Z,16.07
2022-11-23T22:46:39.729Z,17.83
2022-11-23T22:49:07.324Z,18.43
2022-11-23T22:51:34.486Z,18.07
2022-11-23T22:54:01.789Z,17.83
2022-11-23T22:56:29.516Z,18.37
2022-11-23T22:58:57.024Z,15.17
2022-11-23T23:01:26.438Z,18.10
2022-11-23T23:03:55.663Z,16.67
2022-11-23T23:06:24.235Z,19.00
2022-11-23T23:09:01.908Z,13.87
2022-11-23T23:11:30.968Z,16.80
2022-11-23T23:13:58.329Z,16.07
2022-11-23T23:16:25.986Z,16.97
2022-11-23T23:18:55.646Z,16.17
2022-11-23T23:21:23.210Z,15.67
2022-11-23T23:23:51.391Z,17.97
2022-11-23T23:26:19.487Z,15.23
2022-11-23T23:28:47.001Z,15.87
2022-11-23T23:31:16.214Z,16.10
2022-11-23T23:33:44.080Z,15.00
2022-11-23T23:36:12.823Z,18.23
2022-11-23T23:38:40.299Z,16.33
2022-11-23T23:41:08.122Z,18.50
2022-11-23T23:43:35.464Z,25.70
2022-11-23T23:46:03.529Z,19.40
2022-11-23T23:48:34.712Z,19.37
2022-11-23T23:51:05.712Z,15.30
2022-11-23T23:53:34.018Z,18.03
2022-11-23T23:56:02.982Z,19.67
2022-11-23T23:58:30.511Z,14.30
